createdAt,value
2023-05-02T00:00:46.380Z,10.32
2023-05-02T00:01:46.558Z,10.32
2023-05-02T00:02:46.705Z,10.32
2023-05-02T00:03:46.859Z,10.32
2023-05-02T00:04:46.947Z,10.32
2023-05-02T00:05:47.086Z,10.32
2023-05-02T00:06:47.207Z,10.32
2023-05-02T00:07:47.300Z,10.32
2023-05-02T00:08:47.444Z,10.4
2023-05-02T00:09:47.599Z,10.32
2023-05-02T00:10:47.758Z,10.4
2023-05-02T00:11:47.900Z,10.32
2023-05-02T00:12:48.050Z,10.32
2023-05-02T00:13:48.199Z,10.4
2023-05-02T00:14:48.369Z,10.4
2023-05-02T00:15:48.511Z,10.4
2023-05-02T00:16:48.694Z,10.48
2023-05-02T00:17:48.830Z,10.48
2023-05-02T00:18:48.961Z,10.48
2023-05-02T00:19:49.062Z,10.48
2023-05-02T00:20:49.214Z,10.4
2023-05-02T00:21:49.374Z,10.32
2023-05-02T00:22:49.516Z,10.4
2023-05-02T00:23:49.621Z,10.4
2023-05-02T00:24:49.769Z,10.4
2023-05-02T00:25:49.925Z,10.4
2023-05-02T00:26:50.105Z,10.4
2023-05-02T00:27:50.233Z,10.48
2023-05-02T00:28:50.373Z,10.719999
2023-05-02T00:29:50.526Z,10.48
2023-05-02T00:30:50.713Z,10.48
2023-05-02T00:31:50.777Z,10.4
2023-05-02T00:32:50.937Z,10.4
2023-05-02T00:33:51.034Z,10.32
2023-05-02T00:34:51.199Z,10.4
2023-05-02T00:35:51.373Z,10.4
2023-05-02T00:36:51.492Z,10.4
2023-05-02T00:37:51.702Z,10.32
2023-05-02T00:38:51.932Z,10.24
2023-05-02T00:39:51.975Z,10.32
2023-05-02T00:40:52.115Z,10.4
2023-05-02T00:41:52.219Z,10.4
2023-05-02T00:42:52.305Z,10.32
2023-05-02T00:43:52.454Z,10.48
2023-05-02T00:44:52.789Z,10.48
2023-05-02T00:45:52.719Z,10.4
2023-05-02T00:46:52.902Z,10.4
2023-05-02T00:47:52.934Z,10.48
2023-05-02T00:48:53.059Z,10.48
2023-05-02T00:49:53.166Z,10.48
2023-05-02T00:50:53.323Z,10.4
2023-05-02T00:51:53.420Z,10.4
2023-05-02T00:52:53.567Z,10.4
2023-05-02T00:53:53.722Z,10.639999
2023-05-02T00:54:53.865Z,10.4
2023-05-02T00:55:54.023Z,10.32
2023-05-02T00:56:54.176Z,10.48
2023-05-02T00:57:54.365Z,10.4
2023-05-02T00:58:54.482Z,10.4
2023-05-02T00:59:54.627Z,10.32
2023-05-02T01:00:54.728Z,10.4
2023-05-02T01:01:54.906Z,10.32
2023-05-02T01:02:55.068Z,10.32
2023-05-02T01:03:55.179Z,10.32
2023-05-02T01:04:55.237Z,10.32
2023-05-02T01:05:55.394Z,10.32
2023-05-02T01:06:55.535Z,10.32
2023-05-02T01:07:55.695Z,10.4
2023-05-02T01:08:55.847Z,10.639999
2023-05-02T01:09:56.011Z,10.48
2023-05-02T01:10:56.089Z,10.4
2023-05-02T01:11:56.194Z,10.719999
2023-05-02T01:12:56.347Z,10.48
2023-05-02T01:13:56.498Z,10.32
2023-05-02T01:14:56.675Z,10.4
2023-05-02T01:15:56.829Z,10.32
2023-05-02T01:16:56.920Z,10.24
2023-05-02T01:17:57.073Z,10.24
2023-05-02T01:18:57.176Z,10.24
2023-05-02T01:19:57.396Z,10.08
2023-05-02T01:20:57.471Z,10.24
2023-05-02T01:21:57.608Z,10.08
2023-05-02T01:22:57.778Z,10.32
2023-05-02T01:23:57.938Z,10.32
2023-05-02T01:24:58.070Z,10.32
2023-05-02T01:25:58.173Z,10.24
2023-05-02T01:26:58.317Z,10.08
2023-05-02T01:27:58.500Z,10.08
2023-05-02T01:28:58.567Z,10.08
2023-05-02T01:29:58.983Z,10
2023-05-02T01:30:58.778Z,10
2023-05-02T01:31:59.004Z,10
2023-05-02T01:32:59.247Z,10
2023-05-02T01:33:59.226Z,9.92
2023-05-02T01:34:59.380Z,9.84
2023-05-02T01:35:59.534Z,9.92
2023-05-02T01:36:59.681Z,9.84
2023-05-02T01:37:59.837Z,9.679999
2023-05-02T01:38:59.946Z,9.599999
2023-05-02T01:40:00.306Z,9.92
2023-05-02T01:41:00.192Z,9.92
2023-05-02T01:42:00.346Z,9.599999
2023-05-02T01:43:00.495Z,9.599999
2023-05-02T01:44:00.651Z,9.679999
2023-05-02T01:45:00.801Z,9.52
2023-05-02T01:46:00.905Z,9.52
2023-05-02T01:47:01.103Z,9.36
2023-05-02T01:48:01.175Z,9.599999
2023-05-02T01:49:01.311Z,9.36
2023-05-02T01:50:01.538Z,9.28
2023-05-02T01:51:01.561Z,9.28
2023-05-02T01:52:01.664Z,9.679999
2023-05-02T01:53:01.809Z,9.36
2023-05-02T01:54:01.964Z,9.12
2023-05-02T01:55:02.127Z,9.04
2023-05-02T01:56:02.266Z,9.12
2023-05-02T01:57:02.421Z,9.2
2023-05-02T01:58:02.576Z,9.12
2023-05-02T01:59:02.722Z,9.12
2023-05-02T02:00:03.126Z,9.12
2023-05-02T02:01:03.622Z,9.04
2023-05-02T02:02:03.132Z,9.04
2023-05-02T02:03:03.330Z,8.8
2023-05-02T02:04:03.400Z,9.12
2023-05-02T02:05:03.537Z,8.639999
2023-05-02T02:06:03.672Z,8.48
2023-05-02T02:07:03.791Z,8.48
2023-05-02T02:08:03.939Z,8.48
2023-05-02T02:09:04.100Z,8.72
2023-05-02T02:10:04.246Z,8.639999
2023-05-02T02:11:04.382Z,8.8
2023-05-02T02:12:04.493Z,8.8
2023-05-02T02:13:04.640Z,8.72
2023-05-02T02:14:04.746Z,8.32
2023-05-02T02:15:04.856Z,8.32
2023-05-02T02:16:05.012Z,8.32
2023-05-02T02:17:05.201Z,8.4
2023-05-02T02:18:05.343Z,8.72
2023-05-02T02:19:05.475Z,8.639999
2023-05-02T02:20:05.604Z,8.48
2023-05-02T02:21:05.757Z,8.88
2023-05-02T02:22:05.857Z,8.72
2023-05-02T02:23:05.964Z,8.72
2023-05-02T02:24:06.116Z,9.04
2023-05-02T02:25:06.265Z,9.04
2023-05-02T02:26:06.418Z,8.8
2023-05-02T02:27:06.570Z,8.639999
2023-05-02T02:28:06.718Z,8.639999
2023-05-02T02:29:06.869Z,8.72
2023-05-02T02:30:07.020Z,9.04
2023-05-02T02:31:07.175Z,9.12
2023-05-02T02:32:07.227Z,9.2
2023-05-02T02:33:07.440Z,8.8
2023-05-02T02:34:07.534Z,8.72
2023-05-02T02:35:07.702Z,8.72
2023-05-02T02:36:07.839Z,8.72
2023-05-02T02:37:07.988Z,8.72
2023-05-02T02:38:08.137Z,8.48
2023-05-02T02:39:08.292Z,8.48
2023-05-02T02:40:08.442Z,8.72
2023-05-02T02:41:08.547Z,8.4
2023-05-02T02:42:08.691Z,8.24
2023-05-02T02:43:08.793Z,8.24
2023-05-02T02:44:09.074Z,8.48
2023-05-02T02:45:09.047Z,8.32
2023-05-02T02:46:09.247Z,8.4
2023-05-02T02:47:09.344Z,8.4
2023-05-02T02:48:09.486Z,8.4
2023-05-02T02:49:09.608Z,8.72
2023-05-02T02:50:09.749Z,8.72
2023-05-02T02:51:09.854Z,8.48
2023-05-02T02:52:10.007Z,8.48
2023-05-02T02:53:10.159Z,8.639999
2023-05-02T02:54:23.267Z,8.72
2023-05-02T02:55:10.466Z,8.72
2023-05-02T02:56:10.612Z,8.72
2023-05-02T02:57:10.765Z,8.8
2023-05-02T02:58:10.918Z,8.8
2023-05-02T02:59:11.019Z,8.48
2023-05-02T03:00:11.166Z,8.48
2023-05-02T03:01:11.355Z,8.639999
2023-05-02T03:02:11.485Z,8.88
2023-05-02T03:03:11.662Z,8.639999
2023-05-02T03:04:11.755Z,8.639999
2023-05-02T03:05:11.857Z,8.8
2023-05-02T03:06:12.115Z,8.72
2023-05-02T03:07:12.212Z,8.8
2023-05-02T03:08:12.287Z,8.48
2023-05-02T03:09:12.460Z,8.639999
2023-05-02T03:10:12.680Z,8.639999
2023-05-02T03:11:12.796Z,8.639999
2023-05-02T03:12:12.908Z,8.48
2023-05-02T03:13:13.040Z,8.4
2023-05-02T03:14:13.211Z,8.24
2023-05-02T03:15:13.341Z,8.24
2023-05-02T03:16:13.521Z,8.24
2023-05-02T03:17:13.596Z,8.4
2023-05-02T03:18:13.707Z,8.24
2023-05-02T03:19:13.851Z,8
2023-05-02T03:20:13.989Z,7.92
2023-05-02T03:21:14.060Z,8.24
2023-05-02T03:22:14.199Z,8.4
2023-05-02T03:23:14.353Z,8.24
2023-05-02T03:24:14.958Z,7.92
2023-05-02T03:25:14.564Z,7.68
2023-05-02T03:26:14.724Z,7.52
2023-05-02T03:27:14.865Z,7.52
2023-05-02T03:28:15.024Z,7.28
2023-05-02T03:29:15.174Z,7.92
2023-05-02T03:30:15.333Z,7.92
2023-05-02T03:31:15.483Z,8.08
2023-05-02T03:32:15.623Z,7.84
2023-05-02T03:33:16.264Z,7.84
2023-05-02T03:34:15.875Z,7.84
2023-05-02T03:35:16.026Z,7.6
2023-05-02T03:36:16.176Z,7.6
2023-05-02T03:37:16.335Z,7.52
2023-05-02T03:38:16.477Z,7.28
2023-05-02T03:39:16.632Z,7.6
2023-05-02T03:40:16.801Z,7.68
2023-05-02T03:41:16.935Z,7.84
2023-05-02T03:42:17.076Z,8.08
2023-05-02T03:43:17.188Z,8.24
2023-05-02T03:44:17.293Z,8.4
2023-05-02T03:45:17.442Z,8.48
2023-05-02T03:46:17.617Z,8.32
2023-05-02T03:47:17.747Z,8.24
2023-05-02T03:48:17.898Z,8.32
2023-05-02T03:49:18.001Z,8.24
2023-05-02T03:50:18.106Z,8.08
2023-05-02T03:51:18.254Z,8
2023-05-02T03:52:18.435Z,8
2023-05-02T03:53:18.855Z,8.24
2023-05-02T03:54:18.658Z,7.92
2023-05-02T03:55:18.814Z,7.44
2023-05-02T03:56:18.959Z,7.52
2023-05-02T03:57:19.115Z,7.52
2023-05-02T03:58:19.266Z,7.52
2023-05-02T03:59:19.367Z,7.6
2023-05-02T04:00:19.522Z,7.44
2023-05-02T04:01:19.617Z,7.44
2023-05-02T04:02:19.797Z,7.68
2023-05-02T04:03:19.911Z,7.68
2023-05-02T04:04:20.032Z,7.6
2023-05-02T04:05:20.130Z,7.6
2023-05-02T04:06:20.294Z,7.68
2023-05-02T04:07:20.437Z,7.68
2023-05-02T04:08:20.548Z,7.52
2023-05-02T04:09:20.684Z,7.68
2023-05-02T04:10:20.836Z,7.92
2023-05-02T04:11:20.986Z,7.52
2023-05-02T04:12:21.097Z,7.52
2023-05-02T04:13:21.237Z,7.68
2023-05-02T04:14:21.405Z,7.44
2023-05-02T04:15:21.543Z,7.44
2023-05-02T04:16:21.749Z,7.68
2023-05-02T04:17:21.799Z,7.68
2023-05-02T04:18:21.947Z,7.92
2023-05-02T04:19:22.095Z,7.68
2023-05-02T04:20:22.269Z,7.84
2023-05-02T04:21:22.412Z,8.32
2023-05-02T04:22:22.572Z,8.4
2023-05-02T04:23:22.707Z,8.32
2023-05-02T04:24:22.860Z,8.08
2023-05-02T04:25:23.013Z,8.24
2023-05-02T04:26:23.168Z,8.24
2023-05-02T04:27:23.279Z,8.32
2023-05-02T04:28:23.431Z,8.4
2023-05-02T04:29:23.546Z,8.48
2023-05-02T04:30:23.729Z,8.4
2023-05-02T04:31:23.923Z,8.48
2023-05-02T04:32:24.039Z,8.639999
2023-05-02T04:33:24.174Z,8.639999
2023-05-02T04:34:24.334Z,8.72
2023-05-02T04:35:24.472Z,9.04
2023-05-02T04:36:24.626Z,9.04
2023-05-02T04:37:24.773Z,9.04
2023-05-02T04:38:24.941Z,9.12
2023-05-02T04:39:25.085Z,9.04
2023-05-02T04:40:25.233Z,8.88
2023-05-02T04:41:25.337Z,8.88
2023-05-02T04:42:25.484Z,8.88
2023-05-02T04:43:25.649Z,9.04
2023-05-02T04:44:25.787Z,8.88
2023-05-02T04:45:25.936Z,9.12
2023-05-02T04:46:26.107Z,9.12
2023-05-02T04:47:26.282Z,9.2
2023-05-02T04:48:26.394Z,9.2
2023-05-02T04:49:26.541Z,9.2
2023-05-02T04:50:26.696Z,9.12
2023-05-02T04:51:26.858Z,9.28
2023-05-02T04:52:26.952Z,9.28
2023-05-02T04:53:27.059Z,9.28
2023-05-02T04:54:27.211Z,9.36
2023-05-02T04:55:27.354Z,9.52
2023-05-02T04:56:27.506Z,9.52
2023-05-02T04:57:27.657Z,9.52
2023-05-02T04:58:27.773Z,9.52
2023-05-02T04:59:27.884Z,9.52
2023-05-02T05:00:28.019Z,9.52
2023-05-02T05:01:28.233Z,9.599999
2023-05-02T05:02:28.385Z,9.599999
2023-05-02T05:03:28.561Z,9.52
2023-05-02T05:04:28.622Z,9.679999
2023-05-02T05:05:28.839Z,9.679999
2023-05-02T05:06:28.956Z,9.679999
2023-05-02T05:07:29.093Z,9.599999
2023-05-02T05:08:29.243Z,9.679999
2023-05-02T05:09:29.374Z,9.84
2023-05-02T05:10:29.540Z,9.84
2023-05-02T05:11:29.688Z,9.84
2023-05-02T05:12:29.849Z,9.92
2023-05-02T05:13:29.949Z,9.92
2023-05-02T05:14:30.087Z,10
2023-05-02T05:15:30.241Z,10
2023-05-02T05:16:30.420Z,10.08
2023-05-02T05:17:30.529Z,10.08
2023-05-02T05:18:30.648Z,10.08
2023-05-02T05:19:30.809Z,10.08
2023-05-02T05:20:30.945Z,10.08
2023-05-02T05:21:31.104Z,10.08
2023-05-02T05:22:31.249Z,10.08
2023-05-02T05:23:31.411Z,10.08
2023-05-02T05:24:31.552Z,10.24
2023-05-02T05:25:31.671Z,10.24
2023-05-02T05:26:31.817Z,10.32
2023-05-02T05:27:31.963Z,10.4
2023-05-02T05:28:32.111Z,10.4
2023-05-02T05:29:32.263Z,10.4
2023-05-02T05:30:32.419Z,10.8
2023-05-02T05:31:32.563Z,10.8
2023-05-02T05:32:32.990Z,11.04
2023-05-02T05:33:33.152Z,10.8
2023-05-02T05:34:32.966Z,10.8
2023-05-02T05:35:33.285Z,10.719999
2023-05-02T05:36:33.551Z,10.48
2023-05-02T05:37:33.321Z,10.48
2023-05-02T05:38:33.477Z,10.4
2023-05-02T05:39:33.636Z,10.48
2023-05-02T05:40:33.737Z,10.639999
2023-05-02T05:41:33.883Z,10.719999
2023-05-02T05:42:34.031Z,10.8
2023-05-02T05:43:35.094Z,10.719999
2023-05-02T05:44:34.363Z,10.639999
2023-05-02T05:45:34.487Z,10.8
2023-05-02T05:46:34.696Z,10.8
2023-05-02T05:47:34.870Z,10.88
2023-05-02T05:48:34.977Z,10.8
2023-05-02T05:49:35.971Z,10.88
2023-05-02T05:50:35.252Z,10.88
2023-05-02T05:51:35.402Z,10.88
2023-05-02T05:52:35.566Z,11.04
2023-05-02T05:53:35.702Z,11.04
2023-05-02T05:54:35.859Z,11.04
2023-05-02T05:55:37.405Z,11.04
2023-05-02T05:56:36.161Z,10.88
2023-05-02T05:57:36.264Z,10.88
2023-05-02T05:58:36.360Z,11.04
2023-05-02T05:59:36.509Z,11.28
2023-05-02T06:00:36.662Z,11.04
2023-05-02T06:01:36.820Z,10.88
2023-05-02T06:02:36.960Z,11.2
2023-05-02T06:03:37.143Z,11.2
2023-05-02T06:04:37.348Z,11.28
2023-05-02T06:05:37.370Z,11.2
2023-05-02T06:06:37.572Z,11.2
2023-05-02T06:07:37.746Z,11.52
2023-05-02T06:08:37.846Z,11.52
2023-05-02T06:09:37.939Z,11.679999
2023-05-02T06:10:38.087Z,11.84
2023-05-02T06:11:38.196Z,11.679999
2023-05-02T06:12:38.335Z,11.84
2023-05-02T06:13:38.444Z,11.92
2023-05-02T06:14:38.586Z,12
2023-05-02T06:15:38.727Z,12.08
2023-05-02T06:16:38.917Z,12
2023-05-02T06:17:39.026Z,12
2023-05-02T06:18:39.104Z,12.08
2023-05-02T06:19:39.212Z,12.24
2023-05-02T06:20:39.360Z,12.48
2023-05-02T06:21:39.517Z,12.719999
2023-05-02T06:22:39.658Z,12.4
2023-05-02T06:23:39.806Z,12.32
2023-05-02T06:24:39.909Z,12.4
2023-05-02T06:25:40.077Z,12.639999
2023-05-02T06:26:40.166Z,12.88
2023-05-02T06:27:40.316Z,13.12
2023-05-02T06:28:40.473Z,13.04
2023-05-02T06:29:40.571Z,12.719999
2023-05-02T06:30:40.719Z,12.799999
2023-05-02T06:31:40.832Z,13.04
2023-05-02T06:32:40.998Z,12.88
2023-05-02T06:33:41.130Z,13.12
2023-05-02T06:34:41.270Z,13.2
2023-05-02T06:35:41.378Z,13.04
2023-05-02T06:36:41.479Z,12.799999
2023-05-02T06:37:41.629Z,12.799999
2023-05-02T06:38:41.780Z,13.04
2023-05-02T06:39:41.923Z,13.2
2023-05-02T06:40:42.086Z,12.88
2023-05-02T06:41:42.230Z,12.88
2023-05-02T06:42:42.378Z,13.2
2023-05-02T06:43:42.528Z,13.04
2023-05-02T06:44:42.678Z,12.88
2023-05-02T06:45:42.847Z,12.719999
2023-05-02T06:46:42.989Z,12.88
2023-05-02T06:47:43.121Z,12.88
2023-05-02T06:48:43.242Z,13.04
2023-05-02T06:49:43.402Z,12.719999
2023-05-02T06:50:43.563Z,12.719999
2023-05-02T06:51:43.705Z,12.639999
2023-05-02T06:52:43.851Z,12.799999
2023-05-02T06:53:44.004Z,12.719999
2023-05-02T06:54:44.151Z,12.719999
2023-05-02T06:55:44.321Z,12.4
2023-05-02T06:56:44.470Z,12.799999
2023-05-02T06:57:44.621Z,12.799999
2023-05-02T06:58:44.758Z,12.88
2023-05-02T06:59:44.901Z,13.04
2023-05-02T07:00:45.487Z,13.2
2023-05-02T07:01:45.159Z,13.12
2023-05-02T07:02:45.409Z,12.719999
2023-05-02T07:03:45.411Z,12.32
2023-05-02T07:04:45.523Z,12.48
2023-05-02T07:05:45.617Z,12.48
2023-05-02T07:06:45.880Z,12.639999
2023-05-02T07:07:45.924Z,12.4
2023-05-02T07:08:46.066Z,12.48
2023-05-02T07:09:46.249Z,12.4
2023-05-02T07:10:46.336Z,12.48
2023-05-02T07:11:46.452Z,12.4
2023-05-02T07:12:46.636Z,12.08
2023-05-02T07:13:46.789Z,11.92
2023-05-02T07:14:46.971Z,11.679999
2023-05-02T07:15:47.083Z,11.679999
2023-05-02T07:16:47.256Z,11.599999
2023-05-02T07:17:47.378Z,11.52
2023-05-02T07:18:47.486Z,11.44
2023-05-02T07:19:47.644Z,11.44
2023-05-02T07:20:47.791Z,11.44
2023-05-02T07:21:47.942Z,11.44
2023-05-02T07:22:48.097Z,11.44
2023-05-02T07:23:48.220Z,11.28
2023-05-02T07:24:48.357Z,11.2
2023-05-02T07:25:48.501Z,11.2
2023-05-02T07:26:48.674Z,11.28
2023-05-02T07:27:48.808Z,11.2
2023-05-02T07:28:48.983Z,11.12
2023-05-02T07:29:49.174Z,11.2
2023-05-02T07:30:49.368Z,11.2
2023-05-02T07:31:49.535Z,11.2
2023-05-02T07:32:49.745Z,11.2
2023-05-02T07:33:49.814Z,11.2
2023-05-02T07:34:49.982Z,11.2
2023-05-02T07:35:50.113Z,11.2
2023-05-02T07:36:50.221Z,11.2
2023-05-02T07:37:50.320Z,11.2
2023-05-02T07:38:50.423Z,11.2
2023-05-02T07:39:50.522Z,11.12
2023-05-02T07:40:50.622Z,11.12
2023-05-02T07:41:50.731Z,11.04
2023-05-02T07:42:50.887Z,11.04
2023-05-02T07:43:51.050Z,11.04
2023-05-02T07:44:51.188Z,11.04
2023-05-02T07:45:51.363Z,10.88
2023-05-02T07:46:51.493Z,11.04
2023-05-02T07:47:51.674Z,11.04
2023-05-02T07:48:51.791Z,11.12
2023-05-02T07:49:51.949Z,11.12
2023-05-02T07:50:52.097Z,11.2
2023-05-02T07:51:52.197Z,11.52
2023-05-02T07:52:52.351Z,11.28
2023-05-02T07:53:52.500Z,11.44
2023-05-02T07:54:52.662Z,11.2
2023-05-02T07:55:52.813Z,11.28
2023-05-02T07:56:52.985Z,11.28
2023-05-02T07:57:53.106Z,11.44
2023-05-02T07:58:53.208Z,11.599999
2023-05-02T07:59:53.357Z,11.52
2023-05-02T08:00:53.509Z,11.44
2023-05-02T08:01:53.676Z,11.52
2023-05-02T08:02:53.801Z,11.599999
2023-05-02T08:03:54.102Z,12.08
2023-05-02T08:04:54.151Z,12.24
2023-05-02T08:05:54.216Z,12.4
2023-05-02T08:06:54.389Z,12.24
2023-05-02T08:07:54.523Z,12
2023-05-02T08:08:54.897Z,12
2023-05-02T08:09:55.088Z,11.92
2023-05-02T08:10:55.181Z,12
2023-05-02T08:11:55.351Z,12.08
2023-05-02T08:12:55.428Z,12.24
2023-05-02T08:13:55.583Z,12.24
2023-05-02T08:14:55.738Z,12.32
2023-05-02T08:15:55.905Z,12.24
2023-05-02T08:16:56.049Z,12.4
2023-05-02T08:17:56.210Z,12.639999
2023-05-02T08:18:56.343Z,12.719999
2023-05-02T08:19:56.492Z,12.799999
2023-05-02T08:20:56.602Z,12.48
2023-05-02T08:21:56.762Z,12.4
2023-05-02T08:22:58.594Z,12.799999
2023-05-02T08:23:56.996Z,13.04
2023-05-02T08:24:57.152Z,13.2
2023-05-02T08:25:57.303Z,13.44
2023-05-02T08:26:57.409Z,13.2
2023-05-02T08:27:57.570Z,13.599999
2023-05-02T08:28:57.720Z,13.52
2023-05-02T08:29:59.364Z,13.2
2023-05-02T08:30:58.005Z,13.2
2023-05-02T08:31:58.191Z,13.2
2023-05-02T08:32:58.366Z,12.88
2023-05-02T08:33:58.467Z,12.799999
2023-05-02T08:34:58.576Z,12.32
2023-05-02T08:35:58.746Z,12.24
2023-05-02T08:36:58.876Z,12
2023-05-02T08:37:59.025Z,12
2023-05-02T08:38:59.179Z,12
2023-05-02T08:39:59.629Z,12.08
2023-05-02T08:40:59.480Z,12
2023-05-02T08:41:59.629Z,12.08
2023-05-02T08:42:59.828Z,11.92
2023-05-02T08:43:59.932Z,12.08
2023-05-02T08:45:00.105Z,12.24
2023-05-02T08:46:00.232Z,12.4
2023-05-02T08:47:00.448Z,12.639999
2023-05-02T08:48:00.573Z,12.799999
2023-05-02T08:49:00.700Z,12.799999
2023-05-02T08:50:01.151Z,12.88
2023-05-02T08:51:00.992Z,13.2
2023-05-02T08:52:01.143Z,13.28
2023-05-02T08:53:01.292Z,13.44
2023-05-02T08:54:01.444Z,13.44
2023-05-02T08:55:01.929Z,13.599999
2023-05-02T08:56:01.719Z,13.12
2023-05-02T08:57:01.855Z,12.88
2023-05-02T08:58:02.002Z,12.639999
2023-05-02T08:59:02.154Z,12.48
2023-05-02T09:00:03.529Z,12.88
2023-05-02T09:01:02.560Z,13.04
2023-05-02T09:02:02.608Z,13.2
2023-05-02T09:03:03.276Z,13.28
2023-05-02T09:04:02.902Z,13.28
2023-05-02T09:05:03.331Z,13.12
2023-05-02T09:06:03.248Z,13.2
2023-05-02T09:07:03.333Z,13.2
2023-05-02T09:08:03.481Z,13.44
2023-05-02T09:09:03.644Z,13.52
2023-05-02T09:10:03.721Z,14.4
2023-05-02T09:11:03.869Z,15.28
2023-05-02T09:12:04.032Z,16
2023-05-02T09:13:04.181Z,16
2023-05-02T09:14:04.372Z,15.44
2023-05-02T09:15:04.478Z,15.679999
2023-05-02T09:16:04.583Z,16.32
2023-05-02T09:17:04.800Z,16.48
2023-05-02T09:18:04.939Z,16.8
2023-05-02T09:19:04.991Z,16.64
2023-05-02T09:20:05.149Z,15.92
2023-05-02T09:21:05.287Z,15.599999
2023-05-02T09:22:05.448Z,15.44
2023-05-02T09:23:05.593Z,16.32
2023-05-02T09:24:05.745Z,16.24
2023-05-02T09:25:05.911Z,15.679999
2023-05-02T09:26:06.051Z,15.52
2023-05-02T09:27:06.205Z,15.52
2023-05-02T09:28:06.311Z,15.28
2023-05-02T09:29:06.407Z,15.2
2023-05-02T09:30:06.564Z,15.12
2023-05-02T09:31:06.723Z,14.719999
2023-05-02T09:32:06.901Z,14.24
2023-05-02T09:33:06.964Z,13.92
2023-05-02T09:34:07.061Z,14.32
2023-05-02T09:35:07.227Z,14.719999
2023-05-02T09:36:07.364Z,14.4
2023-05-02T09:37:07.526Z,15.12
2023-05-02T09:38:07.674Z,14.32
2023-05-02T09:39:07.820Z,14.24
2023-05-02T09:40:07.974Z,14.639999
2023-05-02T09:41:08.120Z,14.32
2023-05-02T09:42:08.271Z,14.08
2023-05-02T09:43:08.423Z,13.84
2023-05-02T09:44:08.574Z,13.84
2023-05-02T09:45:08.729Z,14.08
2023-05-02T09:46:08.989Z,13.84
2023-05-02T09:47:09.067Z,13.599999
2023-05-02T09:48:09.173Z,13.599999
2023-05-02T09:49:09.255Z,13.2
2023-05-02T09:50:09.444Z,12.88
2023-05-02T09:51:09.590Z,12.88
2023-05-02T09:52:09.742Z,13.04
2023-05-02T09:53:09.983Z,13.28
2023-05-02T09:54:09.943Z,13.04
2023-05-02T09:55:10.113Z,12.88
2023-05-02T09:56:10.217Z,13.04
2023-05-02T09:57:10.403Z,12.88
2023-05-02T09:58:10.550Z,12.799999
2023-05-02T09:59:10.704Z,12.88
2023-05-02T10:00:11.195Z,13.12
2023-05-02T10:01:10.965Z,13.2
2023-05-02T10:02:11.198Z,13.04
2023-05-02T10:03:11.312Z,13.28
2023-05-02T10:04:11.449Z,13.04
2023-05-02T10:05:11.566Z,12.799999
2023-05-02T10:06:11.720Z,12.719999
2023-05-02T10:07:11.883Z,12.88
2023-05-02T10:08:12.026Z,12.799999
2023-05-02T10:09:13.572Z,12.719999
2023-05-02T10:10:12.266Z,12.88
2023-05-02T10:11:12.427Z,13.12
2023-05-02T10:12:12.570Z,12.88
2023-05-02T10:13:12.679Z,13.52
2023-05-02T10:14:12.825Z,13.44
2023-05-02T10:15:12.979Z,13.28
2023-05-02T10:16:13.232Z,13.84
2023-05-02T10:17:13.284Z,14
2023-05-02T10:18:13.479Z,14.639999
2023-05-02T10:19:13.540Z,14.4
2023-05-02T10:20:13.690Z,13.84
2023-05-02T10:21:13.835Z,14.32
2023-05-02T10:22:13.985Z,14
2023-05-02T10:23:14.142Z,14.24
2023-05-02T10:24:14.241Z,13.92
2023-05-02T10:25:14.402Z,14.32
2023-05-02T10:26:14.562Z,13.92
2023-05-02T10:27:14.702Z,14
2023-05-02T10:28:14.855Z,13.599999
2023-05-02T10:29:15.006Z,14.32
2023-05-02T10:30:15.155Z,14.639999
2023-05-02T10:31:15.325Z,14.799999
2023-05-02T10:32:15.413Z,15.04
2023-05-02T10:33:15.598Z,14.799999
2023-05-02T10:34:15.710Z,15.92
2023-05-02T10:35:15.862Z,16.4
2023-05-02T10:36:16.031Z,16.48
2023-05-02T10:37:16.178Z,17.04
2023-05-02T10:38:16.313Z,17.2
2023-05-02T10:39:16.436Z,17.52
2023-05-02T10:40:16.592Z,17.04
2023-05-02T10:41:16.725Z,17.6
2023-05-02T10:42:16.870Z,18
2023-05-02T10:43:17.019Z,17.44
2023-05-02T10:44:17.175Z,16.64
2023-05-02T10:45:17.275Z,16.48
2023-05-02T10:46:17.492Z,17.04
2023-05-02T10:47:17.575Z,16.48
2023-05-02T10:48:17.738Z,16.32
2023-05-02T10:49:17.976Z,16
2023-05-02T10:50:18.034Z,15.599999
2023-05-02T10:51:18.137Z,15.52
2023-05-02T10:52:18.287Z,15.599999
2023-05-02T10:53:18.436Z,15.839999
2023-05-02T10:54:18.602Z,15.52
2023-05-02T10:55:18.753Z,15.679999
2023-05-02T10:56:18.910Z,16.88
2023-05-02T10:57:19.081Z,17.44
2023-05-02T10:58:19.193Z,17.52
2023-05-02T10:59:19.353Z,18.48
2023-05-02T11:00:19.447Z,18.08
2023-05-02T11:01:19.680Z,17.28
2023-05-02T11:02:19.742Z,17.04
2023-05-02T11:03:19.858Z,17.6
2023-05-02T11:04:20.005Z,17.68
2023-05-02T11:05:20.108Z,18.48
2023-05-02T11:06:20.267Z,16.88
2023-05-02T11:07:20.436Z,16.4
2023-05-02T11:08:22.918Z,17.12
2023-05-02T11:09:20.714Z,17.44
2023-05-02T11:10:20.892Z,18.32
2023-05-02T11:11:20.966Z,18.88
2023-05-02T11:12:21.125Z,19.44
2023-05-02T11:13:21.266Z,20
2023-05-02T11:14:21.423Z,18.88
2023-05-02T11:15:21.575Z,19.28
2023-05-02T11:16:21.723Z,20.24
2023-05-02T11:17:21.878Z,19.44
2023-05-02T11:18:21.979Z,19.04
2023-05-02T11:19:22.128Z,19.12
2023-05-02T11:20:22.284Z,19.76
2023-05-02T11:21:22.392Z,19.04
2023-05-02T11:22:22.486Z,19.2
2023-05-02T11:23:22.585Z,19.28
2023-05-02T11:24:22.694Z,19.6
2023-05-02T11:25:22.837Z,19.2
2023-05-02T11:26:22.997Z,19.6
2023-05-02T11:27:23.154Z,18.8
2023-05-02T11:28:23.252Z,18.8
2023-05-02T11:29:23.408Z,19.12
2023-05-02T11:30:23.546Z,19.76
2023-05-02T11:31:23.706Z,19.68
2023-05-02T11:32:23.812Z,20.32
2023-05-02T11:33:23.962Z,21.12
2023-05-02T11:34:24.094Z,20.24
2023-05-02T11:35:24.206Z,19.12
2023-05-02T11:36:24.363Z,19.04
2023-05-02T11:37:24.514Z,20.24
2023-05-02T11:38:24.664Z,20.64
2023-05-02T11:39:25.149Z,18.48
2023-05-02T11:40:25.327Z,18.48
2023-05-02T11:41:25.518Z,17.92
2023-05-02T11:42:25.755Z,18.08
2023-05-02T11:43:25.381Z,18
2023-05-02T11:44:25.530Z,18.08
2023-05-02T11:45:25.628Z,18.4
2023-05-02T11:46:25.830Z,18.72
2023-05-02T11:47:25.923Z,18.08
2023-05-02T11:48:26.040Z,18.64
2023-05-02T11:49:26.188Z,18.24
2023-05-02T11:50:26.333Z,17.76
2023-05-02T11:51:26.468Z,18.48
2023-05-02T11:52:26.616Z,18.24
2023-05-02T11:53:26.716Z,17.52
2023-05-02T11:54:26.894Z,17.52
2023-05-02T11:55:27.033Z,16.88
2023-05-02T11:56:27.173Z,17.76
2023-05-02T11:57:27.350Z,18.08
2023-05-02T11:58:27.449Z,18.4
2023-05-02T11:59:27.599Z,18.32
2023-05-02T12:00:27.755Z,17.92
2023-05-02T12:01:27.909Z,18
2023-05-02T12:02:28.082Z,17.6
2023-05-02T12:03:28.262Z,18.08
2023-05-02T12:04:28.274Z,19.76
2023-05-02T12:05:28.477Z,20
2023-05-02T12:06:28.585Z,21.92
2023-05-02T12:07:28.726Z,22.64
2023-05-02T12:08:28.819Z,21.04
2023-05-02T12:09:28.965Z,20.72
2023-05-02T12:10:29.113Z,20.8
2023-05-02T12:11:29.284Z,22.88
2023-05-02T12:12:29.418Z,22.64
2023-05-02T12:13:29.573Z,21.6
2023-05-02T12:14:29.701Z,20.64
2023-05-02T12:15:29.826Z,20.32
2023-05-02T12:16:29.951Z,20.8
2023-05-02T12:17:30.078Z,21.52
2023-05-02T12:18:30.190Z,20
2023-05-02T12:19:30.347Z,19.04
2023-05-02T12:20:30.446Z,19.28
2023-05-02T12:21:30.543Z,21.12
2023-05-02T12:22:30.689Z,21.68
2023-05-02T12:23:30.831Z,22.08
2023-05-02T12:24:30.990Z,21.6
2023-05-02T12:25:31.144Z,19.76
2023-05-02T12:26:31.293Z,19.52
2023-05-02T12:27:31.404Z,20.72
2023-05-02T12:28:31.554Z,21.28
2023-05-02T12:29:31.698Z,21.2
2023-05-02T12:30:32.020Z,21.04
2023-05-02T12:31:32.078Z,20.88
2023-05-02T12:32:32.177Z,19.6
2023-05-02T12:33:32.315Z,18.48
2023-05-02T12:34:32.459Z,18.48
2023-05-02T12:35:32.618Z,17.6
2023-05-02T12:36:32.775Z,17.52
2023-05-02T12:37:32.973Z,17.52
2023-05-02T12:38:33.110Z,17.68
2023-05-02T12:39:33.639Z,17.2
2023-05-02T12:40:33.420Z,16.88
2023-05-02T12:41:33.538Z,16.88
2023-05-02T12:42:33.685Z,17.04
2023-05-02T12:43:33.828Z,17.2
2023-05-02T12:44:33.967Z,17.2
2023-05-02T12:45:34.124Z,16.88
2023-05-02T12:46:34.378Z,16.88
2023-05-02T12:47:34.462Z,17.04
2023-05-02T12:48:34.528Z,17.28
2023-05-02T12:49:34.687Z,18.32
2023-05-02T12:50:34.828Z,19.04
2023-05-02T12:51:35.031Z,19.28
2023-05-02T12:52:35.148Z,19.28
2023-05-02T12:53:35.290Z,18.8
2023-05-02T12:54:35.441Z,18.4
2023-05-02T12:55:35.592Z,18.32
2023-05-02T12:56:35.748Z,18.72
2023-05-02T12:57:35.926Z,19.2